Time;durP1;ratioP1;P1;durP2;ratioP2;P2;SDS_P1;SDS_P2;PMS_P1;PMS_P2;Temp;Humidity;BMP_temperature;BMP_pressure;BME280_temperature;BME280_humidity;BME280_pressure;Samples;Min_cycle;Max_cycle;Signal;HPM_P1;HPM_P2
2023/08/06 00:00:05;;;;;;;1999.90;999.90;;;14.80;99.90;;;;;;5138562;27;20040;-69
2023/08/06 00:02:31;;;;;;;1999.90;999.90;;;14.80;99.90;;;;;;5138543;27;20034;-69
2023/08/06 00:04:57;;;;;;;1999.90;999.90;;;14.80;99.90;;;;;;5137965;27;20439;-70
2023/08/06 00:07:22;;;;;;;1999.90;999.90;;;14.80;99.90;;;;;;5138543;27;20496;-68
2023/08/06 00:09:48;;;;;;;1999.90;999.90;;;14.80;99.90;;;;;;5138384;27;20488;-69
2023/08/06 00:12:13;;;;;;;1999.90;999.90;;;14.80;99.90;;;;;;5138463;27;20401;-69
2023/08/06 00:14:39;;;;;;;1999.90;999.90;;;14.80;99.90;;;;;;5137884;27;20055;-68
2023/08/06 00:17:04;;;;;;;1999.90;999.90;;;14.80;99.90;;;;;;5138417;27;20031;-69
2023/08/06 00:19:31;;;;;;;1999.90;999.90;;;14.90;99.90;;;;;;5138311;27;20036;-69
2023/08/06 00:21:57;;;;;;;1999.90;999.90;;;14.80;99.90;;;;;;5138149;27;20446;-69
2023/08/06 00:24:22;;;;;;;1999.90;999.90;;;14.90;99.90;;;;;;5137779;27;20032;-69
2023/08/06 00:26:48;;;;;;;1999.90;999.90;;;14.90;99.90;;;;;;5137841;27;20043;-71
2023/08/06 00:29:13;;;;;;;1999.90;999.90;;;14.90;99.90;;;;;;5138268;27;20043;-68
2023/08/06 00:31:39;;;;;;;1999.90;999.90;;;14.80;99.90;;;;;;5138222;27;20035;-68
2023/08/06 00:34:04;;;;;;;1999.90;999.90;;;14.80;99.90;;;;;;5135732;27;20119;-70
2023/08/06 00:36:30;;;;;;;1999.90;999.90;;;14.70;99.90;;;;;;5136701;27;20036;-68
2023/08/06 00:38:55;;;;;;;1999.90;999.90;;;14.70;99.90;;;;;;5137969;27;20047;-69
2023/08/06 00:41:21;;;;;;;1999.90;999.90;;;14.70;99.90;;;;;;5137888;27;20047;-70
2023/08/06 00:43:47;;;;;;;1999.90;999.90;;;14.70;99.90;;;;;;5137407;27;20104;-69
2023/08/06 00:46:13;;;;;;;1999.90;999.90;;;14.70;99.90;;;;;;5137614;27;20043;-69
2023/08/06 00:48:39;;;;;;;1999.90;999.90;;;14.80;99.90;;;;;;5137895;27;20054;-69
2023/08/06 00:51:05;;;;;;;1999.90;999.90;;;14.80;99.90;;;;;;5137748;27;20027;-69
2023/08/06 00:53:31;;;;;;;1999.90;999.90;;;14.80;99.90;;;;;;5137654;27;20028;-69
2023/08/06 00:55:57;;;;;;;1999.90;999.90;;;14.70;99.90;;;;;;5137387;27;20172;-69
2023/08/06 00:58:22;;;;;;;1999.90;999.90;;;14.70;99.90;;;;;;5137425;27;20063;-69
2023/08/06 01:00:48;;;;;;;1999.90;999.90;;;14.60;99.90;;;;;;5137739;27;20103;-68
2023/08/06 01:03:14;;;;;;;1999.90;999.90;;;14.70;99.90;;;;;;5137646;27;20028;-69
2023/08/06 01:05:39;;;;;;;1999.90;999.90;;;14.70;99.90;;;;;;5136837;27;20036;-69
2023/08/06 01:08:33;;;;;;;1999.90;999.90;;;14.70;99.90;;;;;;5137441;27;20034;-70
2023/08/06 01:11:07;;;;;;;1999.90;999.90;;;14.70;99.90;;;;;;5137285;27;20055;-68
2023/08/06 01:13:44;;;;;;;1999.90;999.90;;;14.70;99.90;;;;;;5137267;27;20059;-68
2023/08/06 01:16:11;;;;;;;1999.90;999.90;;;14.70;99.90;;;;;;5137198;27;20077;-70
2023/08/06 01:18:38;;;;;;;1999.90;999.90;;;14.70;99.90;;;;;;5137189;27;20039;-69
2023/08/06 01:21:04;;;;;;;1999.90;999.90;;;14.70;99.90;;;;;;5137253;27;20035;-68
2023/08/06 01:23:30;;;;;;;1999.90;999.90;;;14.70;99.90;;;;;;5137148;27;20030;-68
2023/08/06 01:26:21;;;;;;;1999.90;999.90;;;14.70;99.90;;;;;;5136908;27;20114;-68
2023/08/06 01:28:57;;;;;;;1999.90;999.90;;;14.70;99.90;;;;;;5137461;27;20032;-68
2023/08/06 01:31:30;;;;;;;1999.90;999.90;;;14.70;99.90;;;;;;5137301;27;20550;-68
2023/08/06 01:33:57;;;;;;;1999.90;999.90;;;14.70;99.90;;;;;;5135781;27;20028;-69
2023/08/06 01:36:24;;;;;;;1999.90;999.90;;;14.70;99.90;;;;;;5137044;27;20035;-68
2023/08/06 01:38:52;;;;;;;1999.90;999.90;;;14.70;99.90;;;;;;5135653;27;20035;-69
2023/08/06 01:41:18;;;;;;;1999.90;999.90;;;14.70;99.90;;;;;;5137008;27;20035;-69
2023/08/06 01:43:43;;;;;;;1999.90;999.90;;;14.70;99.90;;;;;;5135052;27;20028;-69
2023/08/06 01:46:09;;;;;;;1999.90;999.90;;;14.70;99.90;;;;;;5136622;27;20093;-68
2023/08/06 01:48:35;;;;;;;1999.90;999.90;;;14.60;99.90;;;;;;5136700;27;20032;-68
2023/08/06 01:51:00;;;;;;;1999.90;999.90;;;14.60;99.90;;;;;;5136804;27;20027;-68
2023/08/06 01:53:26;;;;;;;1999.90;999.90;;;14.70;99.90;;;;;;5136786;27;20023;-69
2023/08/06 01:55:51;;;;;;;1999.90;999.90;;;14.60;99.90;;;;;;5136936;27;20043;-70
2023/08/06 01:58:17;;;;;;;1999.90;999.90;;;14.60;99.90;;;;;;5135275;27;20371;-70
2023/08/06 02:00:42;;;;;;;1999.90;999.90;;;14.60;99.90;;;;;;5136714;27;20404;-69
2023/08/06 02:03:08;;;;;;;1999.90;999.90;;;14.60;99.90;;;;;;5136248;27;20034;-70
2023/08/06 02:05:33;;;;;;;1999.90;999.90;;;14.60;99.90;;;;;;5136070;27;20040;-71
2023/08/06 02:07:59;;;;;;;1999.90;999.90;;;14.60;99.90;;;;;;5136720;27;20038;-70
2023/08/06 02:10:24;;;;;;;1999.90;999.90;;;14.70;99.90;;;;;;5136434;27;20072;-69
2023/08/06 02:12:50;;;;;;;1999.90;999.90;;;14.70;99.90;;;;;;5136405;27;20104;-70
2023/08/06 02:15:15;;;;;;;1999.90;999.90;;;14.70;99.90;;;;;;5136072;27;20068;-70
2023/08/06 02:17:41;;;;;;;1999.90;999.90;;;14.70;99.90;;;;;;5135908;27;20062;-70
2023/08/06 02:20:07;;;;;;;1999.90;999.90;;;14.60;99.90;;;;;;5136329;27;20431;-71
2023/08/06 02:22:33;;;;;;;1999.90;999.90;;;14.60;99.90;;;;;;5136344;27;20023;-71
2023/08/06 02:24:59;;;;;;;1999.90;999.90;;;14.50;99.90;;;;;;5135739;27;20043;-71
2023/08/06 02:27:25;;;;;;;1999.90;999.90;;;14.50;99.90;;;;;;5136090;27;20496;-70
2023/08/06 02:29:50;;;;;;;1999.90;999.90;;;14.50;99.90;;;;;;5136224;27;20039;-69
2023/08/06 02:32:16;;;;;;;1999.90;999.90;;;14.50;99.90;;;;;;5134284;27;20024;-71
2023/08/06 02:34:41;;;;;;;1999.90;999.90;;;14.50;99.90;;;;;;5135636;27;20035;-70
2023/08/06 02:37:07;;;;;;;1999.90;999.90;;;14.50;99.90;;;;;;5135959;27;20027;-70
2023/08/06 02:39:34;;;;;;;1999.90;999.90;;;14.50;99.90;;;;;;5136207;27;20035;-70
2023/08/06 02:41:59;;;;;;;1999.90;999.90;;;14.50;99.90;;;;;;5135965;27;20054;-70
2023/08/06 02:44:28;;;;;;;1999.90;999.90;;;14.60;99.90;;;;;;5134811;27;20035;-71
2023/08/06 02:46:53;;;;;;;1999.90;999.90;;;14.60;99.90;;;;;;5135742;27;20040;-70
2023/08/06 02:49:19;;;;;;;1999.90;999.90;;;14.60;99.90;;;;;;5136112;27;20032;-70
2023/08/06 02:51:45;;;;;;;1999.90;999.90;;;14.60;99.90;;;;;;5135717;27;20046;-70
2023/08/06 02:54:11;;;;;;;1999.90;999.90;;;14.60;99.90;;;;;;5134960;27;20036;-70
2023/08/06 02:56:36;;;;;;;1999.90;999.90;;;14.60;99.90;;;;;;5135768;27;20528;-70
2023/08/06 02:59:02;;;;;;;1999.90;999.90;;;14.50;99.90;;;;;;5135941;27;20097;-70
2023/08/06 03:01:28;;;;;;;1999.90;999.90;;;14.50;99.90;;;;;;5136015;27;20035;-71
2023/08/06 03:03:54;;;;;;;1999.90;999.90;;;14.50;99.90;;;;;;5135377;27;20032;-70
2023/08/06 03:06:19;;;;;;;1999.90;999.90;;;14.50;99.90;;;;;;5135478;27;20043;-70
2023/08/06 03:08:45;;;;;;;1999.90;999.90;;;14.50;99.90;;;;;;5135634;27;20427;-70
2023/08/06 03:11:10;;;;;;;1999.90;999.90;;;14.50;99.90;;;;;;5135661;27;20463;-71
2023/08/06 03:13:36;;;;;;;1999.90;999.90;;;14.40;99.90;;;;;;5135743;27;20048;-70
2023/08/06 03:16:01;;;;;;;1999.90;999.90;;;14.40;99.90;;;;;;5135463;27;20047;-69
2023/08/06 03:18:27;;;;;;;1999.90;999.90;;;14.40;99.90;;;;;;5134051;27;20493;-70
2023/08/06 03:20:53;;;;;;;1999.90;999.90;;;14.40;99.90;;;;;;5135403;27;20082;-70
2023/08/06 03:23:18;;;;;;;1999.90;999.90;;;14.40;99.90;;;;;;5133739;27;20027;-70
2023/08/06 03:25:45;;;;;;;1999.90;999.90;;;14.40;99.90;;;;;;5135170;27;20047;-70
2023/08/06 03:28:10;;;;;;;1999.90;999.90;;;14.40;99.90;;;;;;5135585;27;20067;-69
2023/08/06 03:30:36;;;;;;;1999.90;999.90;;;14.40;99.90;;;;;;5135332;27;20085;-71
2023/08/06 03:33:02;;;;;;;1999.90;999.90;;;14.40;99.90;;;;;;5135372;27;20031;-70
2023/08/06 03:35:27;;;;;;;1999.90;999.90;;;14.50;99.90;;;;;;5134997;27;20492;-70
2023/08/06 03:37:53;;;;;;;1999.90;999.90;;;14.50;99.90;;;;;;5134944;27;20028;-70
2023/08/06 03:40:18;;;;;;;1999.90;999.90;;;14.40;99.90;;;;;;5135240;27;20046;-70
2023/08/06 03:42:44;;;;;;;1999.90;999.90;;;14.50;99.90;;;;;;5135430;27;20065;-70
2023/08/06 03:45:10;;;;;;;1999.90;999.90;;;14.50;99.90;;;;;;5134667;27;20036;-71
2023/08/06 03:47:35;;;;;;;1999.90;999.90;;;14.50;99.90;;;;;;5133879;27;20035;-70
2023/08/06 03:50:01;;;;;;;1999.90;999.90;;;14.50;99.90;;;;;;5135111;27;20031;-70
2023/08/06 03:52:26;;;;;;;1999.90;999.90;;;14.50;99.90;;;;;;5135221;27;20034;-70
2023/08/06 03:54:52;;;;;;;1999.90;999.90;;;14.50;99.90;;;;;;5132648;27;20116;-69
2023/08/06 03:57:17;;;;;;;1999.90;999.90;;;14.50;99.90;;;;;;5135143;27;20034;-71
2023/08/06 03:59:43;;;;;;;1999.90;999.90;;;14.50;99.90;;;;;;5135331;27;20059;-70
2023/08/06 04:02:09;;;;;;;1999.90;999.90;;;14.50;99.90;;;;;;5135602;27;20111;-70
2023/08/06 04:04:34;;;;;;;1999.90;999.90;;;14.50;99.90;;;;;;5137925;27;20067;-71
2023/08/06 04:07:00;;;;;;;1999.90;999.90;;;14.50;99.90;;;;;;5138256;27;20085;-70
2023/08/06 04:09:27;;;;;;;1999.90;999.90;;;14.50;99.90;;;;;;5138493;27;20036;-70
2023/08/06 04:11:53;;;;;;;1999.90;999.90;;;14.50;99.90;;;;;;5138410;27;20038;-70
2023/08/06 04:14:18;;;;;;;1999.90;999.90;;;14.50;99.90;;;;;;5137723;27;20524;-71
2023/08/06 04:16:44;;;;;;;1999.90;999.90;;;14.50;99.90;;;;;;5138369;27;20036;-70
2023/08/06 04:19:10;;;;;;;1999.90;999.90;;;14.60;99.90;;;;;;5138299;27;20039;-70
2023/08/06 04:21:35;;;;;;;1999.90;999.90;;;14.50;99.90;;;;;;5138015;27;20123;-71
2023/08/06 04:24:01;;;;;;;1999.90;999.90;;;14.60;99.90;;;;;;5137864;27;20353;-71
2023/08/06 04:26:27;;;;;;;1999.90;999.90;;;14.60;99.90;;;;;;5138274;27;20462;-71
2023/08/06 04:28:52;;;;;;;1999.90;999.90;;;14.60;99.90;;;;;;5138309;27;20354;-70
2023/08/06 04:31:18;;;;;;;1999.90;999.90;;;14.60;99.90;;;;;;5138389;27;20039;-71
2023/08/06 04:33:43;;;;;;;1999.90;999.90;;;14.50;99.90;;;;;;5138009;27;20036;-70
2023/08/06 04:36:09;;;;;;;1999.90;999.90;;;14.50;99.90;;;;;;5137500;27;20080;-71
2023/08/06 04:38:34;;;;;;;1999.90;999.90;;;14.50;99.90;;;;;;5138070;27;20027;-71
2023/08/06 04:41:03;;;;;;;1999.90;999.90;;;14.40;99.90;;;;;;5138087;27;20404;-71
2023/08/06 04:43:29;;;;;;;1999.90;999.90;;;14.40;99.90;;;;;;5137665;27;20077;-70
2023/08/06 04:45:55;;;;;;;1999.90;999.90;;;14.40;99.90;;;;;;5137664;27;20118;-70
2023/08/06 04:48:22;;;;;;;1999.90;999.90;;;14.40;99.90;;;;;;5136280;27;20032;-70
2023/08/06 04:50:48;;;;;;;1999.90;999.90;;;14.40;99.90;;;;;;5137601;27;20433;-71
2023/08/06 04:53:14;;;;;;;1999.90;999.90;;;14.40;99.90;;;;;;5137744;27;20024;-71
2023/08/06 04:55:40;;;;;;;1999.90;999.90;;;14.40;99.90;;;;;;5137013;27;20497;-70
2023/08/06 04:58:06;;;;;;;1999.90;999.90;;;14.40;99.90;;;;;;5137820;27;20031;-70
2023/08/06 05:00:32;;;;;;;1999.90;999.90;;;14.30;99.90;;;;;;5136189;27;20104;-70
2023/08/06 05:03:00;;;;;;;1999.90;999.90;;;14.40;99.90;;;;;;5137638;27;20043;-70
2023/08/06 05:05:25;;;;;;;1999.90;999.90;;;14.50;99.90;;;;;;5136798;27;20043;-70
2023/08/06 05:07:51;;;;;;;1999.90;999.90;;;14.50;99.90;;;;;;5137678;27;20031;-70
2023/08/06 05:10:16;;;;;;;1999.90;999.90;;;14.60;99.90;;;;;;5137709;27;20037;-71
2023/08/06 05:12:42;;;;;;;1999.90;999.90;;;14.70;99.90;;;;;;5137520;27;20036;-71
2023/08/06 05:15:08;;;;;;;1999.90;999.90;;;14.70;99.90;;;;;;5136983;27;20511;-70
2023/08/06 05:17:33;;;;;;;1999.90;999.90;;;14.70;99.90;;;;;;5137174;27;20031;-71
2023/08/06 05:19:59;;;;;;;1999.90;999.90;;;14.70;99.90;;;;;;5135894;27;20144;-70
2023/08/06 05:22:25;;;;;;;1999.90;999.90;;;14.70;99.90;;;;;;5137352;27;20473;-70
2023/08/06 05:24:51;;;;;;;1999.90;999.90;;;14.70;99.90;;;;;;5136539;27;20035;-70
2023/08/06 05:27:18;;;;;;;1999.90;999.90;;;14.60;99.90;;;;;;5137243;27;20030;-70
2023/08/06 05:29:44;;;;;;;1999.90;999.90;;;14.40;99.90;;;;;;5135847;27;20156;-70
2023/08/06 05:32:10;;;;;;;1999.90;999.90;;;14.30;99.90;;;;;;5137232;27;20528;-70
2023/08/06 05:34:35;;;;;;;1999.90;999.90;;;14.30;99.90;;;;;;5136333;27;20030;-71
2023/08/06 05:37:01;;;;;;;1999.90;999.90;;;14.20;99.90;;;;;;5135606;27;20473;-70
2023/08/06 05:39:27;;;;;;;1999.90;999.90;;;14.00;99.90;;;;;;5137314;27;20032;-70
2023/08/06 05:41:52;;;;;;;1999.90;999.90;;;13.90;99.90;;;;;;5137011;27;20071;-70
2023/08/06 05:44:18;;;;;;;1999.90;999.90;;;13.90;99.90;;;;;;5136397;27;20389;-70
2023/08/06 05:46:43;;;;;;;1999.90;999.90;;;13.90;99.90;;;;;;5136608;27;20039;-70
2023/08/06 05:49:09;;;;;;;1999.90;999.90;;;13.90;99.90;;;;;;5136876;27;20489;-71
2023/08/06 05:51:34;;;;;;;1999.90;999.90;;;13.80;99.90;;;;;;5136849;27;20048;-70
2023/08/06 05:54:00;;;;;;;1999.90;999.90;;;13.80;99.90;;;;;;5135889;27;20038;-69
2023/08/06 05:56:25;;;;;;;1999.90;999.90;;;13.70;99.90;;;;;;5136966;27;20039;-71
2023/08/06 05:58:52;;;;;;;1999.90;999.90;;;13.70;99.90;;;;;;5136852;27;20040;-70
2023/08/06 06:01:19;;;;;;;1999.90;999.90;;;13.70;99.90;;;;;;5136495;27;20502;-70
2023/08/06 06:03:44;;;;;;;1999.90;999.90;;;13.70;99.90;;;;;;5136595;27;20034;-71
2023/08/06 06:06:10;;;;;;;1999.90;999.90;;;13.80;99.90;;;;;;5136310;27;20038;-70
2023/08/06 06:08:35;;;;;;;1999.90;999.90;;;13.90;99.90;;;;;;5136607;27;20439;-70
2023/08/06 06:11:01;;;;;;;1999.90;999.90;;;14.00;99.90;;;;;;5136520;27;20035;-70
2023/08/06 06:13:26;;;;;;;1999.90;999.90;;;14.00;99.90;;;;;;5136471;27;20035;-71
2023/08/06 06:15:55;;;;;;;1999.90;999.90;;;14.00;99.90;;;;;;5136398;27;20097;-70
2023/08/06 06:18:21;;;;;;;1999.90;999.90;;;14.20;99.90;;;;;;5136370;27;20024;-71
2023/08/06 06:20:47;;;;;;;1999.90;999.90;;;14.40;99.90;;;;;;5136461;27;20028;-71
2023/08/06 06:23:12;;;;;;;1999.90;999.90;;;14.40;99.90;;;;;;5136007;27;20019;-70
2023/08/06 06:25:48;;;;;;;1999.90;999.90;;;14.50;99.90;;;;;;5135365;27;20100;-70
2023/08/06 06:28:14;;;;;;;1999.90;999.90;;;14.40;99.90;;;;;;5136716;27;20035;-71
2023/08/06 06:30:41;;;;;;;1999.90;999.90;;;14.50;99.90;;;;;;5136076;27;20031;-71
2023/08/06 06:33:07;;;;;;;1999.90;999.90;;;14.60;99.90;;;;;;5134668;27;20027;-70
2023/08/06 06:35:33;;;;;;;1999.90;999.90;;;14.80;99.90;;;;;;5135571;27;20042;-70
2023/08/06 06:37:58;;;;;;;1999.90;999.90;;;15.00;99.90;;;;;;5136136;27;20066;-72
2023/08/06 06:40:24;;;;;;;1999.90;999.90;;;15.10;99.90;;;;;;5135825;27;20036;-77
2023/08/06 06:42:49;;;;;;;1999.90;999.90;;;15.20;99.90;;;;;;5135946;27;20024;-72
2023/08/06 06:45:15;;;;;;;1999.90;999.90;;;15.20;99.90;;;;;;5134917;27;20046;-77
2023/08/06 06:47:41;;;;;;;1999.90;999.90;;;15.00;99.90;;;;;;5135194;27;20034;-72
2023/08/06 06:50:07;;;;;;;1999.90;999.90;;;14.90;99.90;;;;;;5133905;27;20035;-71
2023/08/06 06:52:32;;;;;;;1999.90;999.90;;;15.20;99.90;;;;;;5135548;27;20050;-70
2023/08/06 06:54:58;;;;;;;1999.90;999.90;;;15.30;99.90;;;;;;5134605;27;20035;-71
2023/08/06 06:57:23;;;;;;;1999.90;999.90;;;15.40;99.90;;;;;;5124302;27;20046;-72
2023/08/06 06:59:49;;;;;;;1999.90;999.90;;;15.50;99.90;;;;;;5114564;27;20567;-71
2023/08/06 07:02:14;;;;;;;1999.90;999.90;;;15.40;99.90;;;;;;5111989;28;20032;-71
2023/08/06 07:04:40;;;;;;;1999.90;999.90;;;15.20;99.90;;;;;;5113489;27;20056;-70
2023/08/06 07:07:05;;;;;;;1999.90;999.90;;;15.10;99.90;;;;;;5114574;27;20054;-70
2023/08/06 07:09:31;;;;;;;1999.90;999.90;;;14.90;99.90;;;;;;5114809;27;20490;-71
2023/08/06 07:11:56;;;;;;;1999.90;999.90;;;14.80;99.90;;;;;;5108418;27;20048;-71
2023/08/06 07:14:25;;;;;;;1999.90;999.90;;;14.70;99.90;;;;;;5114618;27;20036;-70
2023/08/06 07:16:50;;;;;;;1999.90;999.90;;;14.70;99.90;;;;;;5114915;27;20071;-71
2023/08/06 07:19:16;;;;;;;1999.90;999.90;;;14.70;99.90;;;;;;5115054;27;20466;-70
2023/08/06 07:21:42;;;;;;;1999.90;999.90;;;14.70;99.90;;;;;;5115287;27;20090;-70
2023/08/06 07:24:07;;;;;;;1999.90;999.90;;;14.60;99.90;;;;;;5114287;27;20039;-71
2023/08/06 07:26:33;;;;;;;1999.90;999.90;;;14.60;99.90;;;;;;5114900;27;20048;-73
2023/08/06 07:28:58;;;;;;;1999.90;999.90;;;14.70;99.90;;;;;;5114852;27;20032;-70
2023/08/06 07:31:24;;;;;;;1999.90;999.90;;;14.90;99.90;;;;;;5114927;27;20405;-70
2023/08/06 07:33:49;;;;;;;1999.90;999.90;;;15.00;99.90;;;;;;5114419;27;20035;-70
2023/08/06 07:36:15;;;;;;;1999.90;999.90;;;15.00;99.90;;;;;;5114573;27;20032;-70
2023/08/06 07:38:41;;;;;;;1999.90;999.90;;;15.00;99.90;;;;;;5117222;27;20032;-70
2023/08/06 07:41:07;;;;;;;1999.90;999.90;;;14.90;99.90;;;;;;5118381;27;20406;-70
2023/08/06 07:43:32;;;;;;;1999.90;999.90;;;15.10;99.90;;;;;;5118062;27;20516;-70
2023/08/06 07:46:00;;;;;;;1999.90;999.90;;;15.20;99.90;;;;;;5117957;27;20093;-70
2023/08/06 07:48:26;;;;;;;1999.90;999.90;;;15.20;99.90;;;;;;5118035;27;20036;-71
2023/08/06 07:50:55;;;;;;;1999.90;999.90;;;15.30;99.90;;;;;;5118211;27;20488;-70
2023/08/06 07:53:26;;;;;;;1999.90;999.90;;;15.10;99.90;;;;;;5117035;27;20038;-70
2023/08/06 07:55:53;;;;;;;1999.90;999.90;;;15.20;99.90;;;;;;5118404;27;20036;-70
2023/08/06 07:58:19;;;;;;;1999.90;999.90;;;15.10;99.90;;;;;;5116571;28;20039;-70
2023/08/06 08:00:45;;;;;;;1999.90;999.90;;;15.20;99.90;;;;;;5117853;27;20476;-71
2023/08/06 08:03:15;;;;;;;1999.90;999.90;;;15.30;99.90;;;;;;5116532;27;20031;-70
2023/08/06 08:05:42;;;;;;;1999.90;999.90;;;15.60;99.90;;;;;;5117114;27;20506;-70
2023/08/06 08:08:07;;;;;;;1999.90;999.90;;;15.90;99.90;;;;;;5117477;27;20028;-70
2023/08/06 08:10:34;;;;;;;1999.90;999.90;;;16.20;99.90;;;;;;5117942;27;20028;-70
2023/08/06 08:13:01;;;;;;;1999.90;999.90;;;16.20;99.90;;;;;;5117877;27;20122;-70
2023/08/06 08:15:28;;;;;;;1999.90;999.90;;;15.70;99.90;;;;;;5117384;27;20485;-71
2023/08/06 08:17:54;;;;;;;1999.90;999.90;;;15.40;99.90;;;;;;5117837;27;20039;-70
2023/08/06 08:20:21;;;;;;;1999.90;999.90;;;15.10;99.90;;;;;;5117736;27;20040;-70
2023/08/06 08:22:46;;;;;;;1999.90;999.90;;;14.80;99.90;;;;;;5117978;27;20036;-72
2023/08/06 08:25:12;;;;;;;1999.90;999.90;;;14.70;99.90;;;;;;5117190;27;20397;-70
2023/08/06 08:27:38;;;;;;;1999.90;999.90;;;14.50;99.90;;;;;;5117883;27;20036;-70
2023/08/06 08:30:04;;;;;;;1999.90;999.90;;;14.40;99.90;;;;;;5117637;27;20036;-70
2023/08/06 08:32:29;;;;;;;1999.90;999.90;;;14.30;99.90;;;;;;5117177;27;20038;-70
2023/08/06 08:34:55;;;;;;;1999.90;999.90;;;14.30;99.90;;;;;;5116954;27;20039;-68
2023/08/06 08:37:21;;;;;;;1999.90;999.90;;;14.30;99.90;;;;;;5117443;27;20032;-69
2023/08/06 08:39:46;;;;;;;1999.90;999.90;;;14.40;99.90;;;;;;5117553;27;20032;-69
2023/08/06 08:42:12;;;;;;;1999.90;999.90;;;14.50;99.90;;;;;;5117636;28;20044;-68
2023/08/06 08:44:42;;;;;;;1999.90;999.90;;;14.70;99.90;;;;;;5116918;27;20086;-70
2023/08/06 08:47:09;;;;;;;1999.90;999.90;;;15.10;99.90;;;;;;5116915;27;20032;-69
2023/08/06 08:49:35;;;;;;;1999.90;999.90;;;15.20;99.90;;;;;;5116898;27;20119;-69
2023/08/06 08:52:03;;;;;;;1999.90;999.90;;;15.30;99.90;;;;;;5117323;27;20024;-72
2023/08/06 08:54:30;;;;;;;1999.90;999.90;;;15.30;99.90;;;;;;5116212;27;20078;-68
2023/08/06 08:56:56;;;;;;;1999.90;999.90;;;15.50;99.90;;;;;;5116817;27;20113;-69
2023/08/06 08:59:23;;;;;;;1999.90;999.90;;;15.70;99.90;;;;;;5117164;27;20028;-71
2023/08/06 09:01:52;;;;;;;1999.90;999.90;;;15.80;99.90;;;;;;5116870;27;20047;-74
2023/08/06 09:04:19;;;;;;;1999.90;999.90;;;15.70;99.90;;;;;;5116452;28;20463;-70
2023/08/06 09:06:49;;;;;;;1999.90;999.90;;;15.60;99.90;;;;;;5116881;27;20040;-70
2023/08/06 09:09:25;;;;;;;1999.90;999.90;;;15.50;99.90;;;;;;5116782;27;20445;-69
2023/08/06 09:11:51;;;;;;;1999.90;999.90;;;15.40;99.90;;;;;;5116697;27;20064;-70
2023/08/06 09:14:17;;;;;;;1999.90;999.90;;;15.30;99.90;;;;;;5116155;27;20032;-69
2023/08/06 09:16:43;;;;;;;1999.90;999.90;;;15.30;99.90;;;;;;5116954;27;20484;-70
2023/08/06 09:19:09;;;;;;;1999.90;999.90;;;15.50;99.90;;;;;;5116889;27;20029;-71
2023/08/06 09:21:39;;;;;;;1999.90;999.90;;;15.60;99.90;;;;;;5116902;27;20043;-68
2023/08/06 09:24:12;;;;;;;1999.90;999.90;;;15.70;99.90;;;;;;5116086;27;20028;-69
2023/08/06 09:26:42;;;;;;;1999.90;999.90;;;15.80;99.90;;;;;;5116449;27;20040;-71
2023/08/06 09:29:08;;;;;;;1999.90;999.90;;;15.60;99.90;;;;;;5116612;27;20024;-70
2023/08/06 09:31:42;;;;;;;1999.90;999.90;;;15.60;99.90;;;;;;5116539;27;20067;-70
2023/08/06 09:34:16;;;;;;;1999.90;999.90;;;15.50;99.90;;;;;;5116451;28;20051;-69
2023/08/06 09:36:43;;;;;;;1999.90;999.90;;;15.40;99.90;;;;;;5116688;27;20036;-71
2023/08/06 09:39:16;;;;;;;1999.90;999.90;;;15.40;99.90;;;;;;5116560;27;20035;-69
2023/08/06 09:41:42;;;;;;;1999.90;999.90;;;15.30;99.90;;;;;;5116651;27;20028;-69
2023/08/06 09:44:18;;;;;;;1999.90;999.90;;;15.20;99.90;;;;;;5115974;28;20031;-74
2023/08/06 09:46:55;;;;;;;1999.90;999.90;;;15.20;99.90;;;;;;5116086;27;20089;-68
2023/08/06 09:49:25;;;;;;;1999.90;999.90;;;15.30;99.90;;;;;;5116356;27;20792;-70
2023/08/06 09:51:53;;;;;;;1999.90;999.90;;;15.40;99.90;;;;;;5115960;27;20039;-70
2023/08/06 09:54:19;;;;;;;1999.90;999.90;;;15.40;99.90;;;;;;5115355;27;20486;-70
2023/08/06 09:56:45;;;;;;;1999.90;999.90;;;15.60;99.90;;;;;;5116139;27;20032;-70
2023/08/06 09:59:13;;;;;;;1999.90;999.90;;;15.70;99.90;;;;;;5116260;27;20028;-70
2023/08/06 10:01:39;;;;;;;1999.90;999.90;;;15.70;99.90;;;;;;5115195;27;20052;-70
2023/08/06 10:04:11;;;;;;;1999.90;999.90;;;15.80;99.90;;;;;;5115711;27;20109;-72
2023/08/06 10:06:37;;;;;;;1999.90;999.90;;;16.00;99.90;;;;;;5115903;27;20032;-71
2023/08/06 10:09:06;;;;;;;1999.90;999.90;;;16.20;99.90;;;;;;5115724;27;20522;-71
2023/08/06 10:11:31;;;;;;;1999.90;999.90;;;16.40;99.90;;;;;;5114336;27;20515;-71
2023/08/06 10:14:04;;;;;;;1999.90;999.90;;;16.40;99.90;;;;;;5115448;27;20031;-68
2023/08/06 10:16:30;;;;;;;1999.90;999.90;;;16.30;99.90;;;;;;5115449;27;20039;-71
2023/08/06 10:18:57;;;;;;;1999.90;999.90;;;16.20;99.90;;;;;;5115703;27;20405;-71
2023/08/06 10:21:24;;;;;;;1999.90;999.90;;;16.10;99.90;;;;;;5115723;27;20769;-72
2023/08/06 10:23:54;;;;;;;1999.90;999.90;;;15.80;99.90;;;;;;5115528;27;20497;-71
2023/08/06 10:26:20;;;;;;;1999.90;999.90;;;15.60;99.90;;;;;;5115748;27;20044;-72
2023/08/06 10:28:45;;;;;;;1999.90;999.90;;;15.40;99.90;;;;;;5115584;28;20102;-71
2023/08/06 10:31:11;;;;;;;1999.90;999.90;;;15.30;99.90;;;;;;5115253;27;20098;-72
2023/08/06 10:33:47;;;;;;;1999.90;999.90;;;15.40;99.90;;;;;;5115625;27;20024;-71
2023/08/06 10:36:13;;;;;;;1999.90;999.90;;;15.40;99.90;;;;;;5115524;28;20848;-72
2023/08/06 10:38:49;;;;;;;1999.90;999.90;;;15.40;99.90;;;;;;5114018;28;20094;-72
2023/08/06 10:41:29;;;;;;;1999.90;999.90;;;15.40;99.90;;;;;;5115369;27;20103;-71
2023/08/06 10:44:13;;;;;;;1999.90;999.90;;;15.40;99.90;;;;;;5114861;27;20385;-69
2023/08/06 10:46:39;;;;;;;1999.90;999.90;;;15.30;99.90;;;;;;5115466;27;20036;-71
2023/08/06 10:49:04;;;;;;;1999.90;999.90;;;15.40;99.90;;;;;;5115502;27;20020;-71
2023/08/06 10:51:30;;;;;;;1999.90;999.90;;;15.30;99.90;;;;;;5115404;27;20064;-71
2023/08/06 10:53:57;;;;;;;1999.90;999.90;;;15.20;99.90;;;;;;5114705;27;20373;-68
2023/08/06 10:56:26;;;;;;;1999.90;999.90;;;15.10;99.90;;;;;;5115240;27;20086;-72
2023/08/06 10:58:53;;;;;;;1999.90;999.90;;;15.10;99.90;;;;;;5114925;27;20024;-72
2023/08/06 11:01:19;;;;;;;1999.90;999.90;;;15.20;99.90;;;;;;5115160;27;20502;-72
2023/08/06 11:03:47;;;;;;;1999.90;999.90;;;15.30;99.90;;;;;;5115041;27;20040;-72
2023/08/06 11:06:19;;;;;;;1999.90;999.90;;;15.30;99.90;;;;;;5114740;28;20529;-72
2023/08/06 11:08:53;;;;;;;1999.90;999.90;;;15.40;99.90;;;;;;5113543;28;20040;-72
2023/08/06 11:11:19;;;;;;;1999.90;999.90;;;15.50;99.90;;;;;;5115891;27;20473;-72
2023/08/06 11:13:47;;;;;;;1999.90;999.90;;;15.60;99.90;;;;;;5118549;27;20032;-72
2023/08/06 11:16:17;;;;;;;1999.90;999.90;;;15.40;99.90;;;;;;5118094;27;20047;-72
2023/08/06 11:18:43;;;;;;;1999.90;999.90;;;15.30;99.90;;;;;;5117850;27;20036;-74
2023/08/06 11:21:09;;;;;;;1999.90;999.90;;;15.20;99.90;;;;;;5118777;27;20049;-74
2023/08/06 11:23:35;;;;;;;1999.90;999.90;;;15.20;99.90;;;;;;5118829;27;20043;-73
2023/08/06 11:26:02;;;;;;;1999.90;999.90;;;15.10;99.90;;;;;;5118356;27;20442;-73
2023/08/06 11:28:28;;;;;;;1999.90;999.90;;;15.00;99.90;;;;;;5118415;27;20379;-73
2023/08/06 11:30:56;;;;;;;1999.90;999.90;;;14.90;99.90;;;;;;5116250;28;20039;-73
2023/08/06 11:33:25;;;;;;;1999.90;999.90;;;14.90;99.90;;;;;;5118439;28;20177;-73
2023/08/06 11:35:51;;;;;;;1999.90;999.90;;;15.00;99.90;;;;;;5116452;28;20036;-74
2023/08/06 11:38:18;;;;;;;1999.90;999.90;;;15.10;99.90;;;;;;5118478;28;20029;-73
2023/08/06 11:40:45;;;;;;;1999.90;999.90;;;15.00;99.90;;;;;;5118368;27;20054;-74
2023/08/06 11:43:12;;;;;;;1999.90;999.90;;;15.20;99.90;;;;;;5118229;27;20417;-73
2023/08/06 11:45:38;;;;;;;1999.90;999.90;;;15.30;99.90;;;;;;5113487;28;20139;-74
2023/08/06 11:48:05;;;;;;;1999.90;999.90;;;15.30;99.90;;;;;;5117980;28;20478;-73
2023/08/06 11:50:30;;;;;;;1999.90;999.90;;;15.30;99.90;;;;;;5118131;27;20448;-74
2023/08/06 11:53:01;;;;;;;1999.90;999.90;;;15.30;99.90;;;;;;5118413;27;20028;-74
2023/08/06 11:55:30;;;;;;;1999.90;999.90;;;15.30;99.90;;;;;;5117044;28;20043;-73